sensor_id;sensor_type;location;lat;lon;timestamp;P1;durP1;ratioP1;P2;durP2;ratioP2
10031;SDS011;5056;44.272;19.892;2023-01-06T00:00:38;61.30;;;44.63;;
10031;SDS011;5056;44.272;19.892;2023-01-06T00:03:04;56.07;;;40.60;;
10031;SDS011;5056;44.272;19.892;2023-01-06T00:05:34;55.60;;;41.77;;
10031;SDS011;5056;44.272;19.892;2023-01-06T00:10:53;59.70;;;42.50;;
10031;SDS011;5056;44.272;19.892;2023-01-06T00:13:21;58.97;;;41.33;;
10031;SDS011;5056;44.272;19.892;2023-01-06T00:15:48;51.57;;;38.50;;
10031;SDS011;5056;44.272;19.892;2023-01-06T00:18:15;53.70;;;38.63;;
10031;SDS011;5056;44.272;19.892;2023-01-06T00:20:42;54.67;;;40.53;;
10031;SDS011;5056;44.272;19.892;2023-01-06T00:23:14;58.47;;;45.83;;
10031;SDS011;5056;44.272;19.892;2023-01-06T00:25:47;63.33;;;47.83;;
10031;SDS011;5056;44.272;19.892;2023-01-06T00:28:22;58.90;;;47.03;;
10031;SDS011;5056;44.272;19.892;2023-01-06T00:30:48;56.47;;;43.37;;
10031;SDS011;5056;44.272;19.892;2023-01-06T00:33:17;55.40;;;41.17;;
10031;SDS011;5056;44.272;19.892;2023-01-06T00:35:44;53.83;;;40.93;;
10031;SDS011;5056;44.272;19.892;2023-01-06T00:38:11;50.30;;;38.57;;
10031;SDS011;5056;44.272;19.892;2023-01-06T00:40:38;51.67;;;37.20;;
10031;SDS011;5056;44.272;19.892;2023-01-06T00:43:05;50.27;;;37.43;;
10031;SDS011;5056;44.272;19.892;2023-01-06T00:45:33;48.20;;;35.67;;
10031;SDS011;5056;44.272;19.892;2023-01-06T00:48:00;44.93;;;32.43;;
10031;SDS011;5056;44.272;19.892;2023-01-06T00:50:27;47.37;;;33.90;;
10031;SDS011;5056;44.272;19.892;2023-01-06T00:52:55;46.30;;;33.33;;
10031;SDS011;5056;44.272;19.892;2023-01-06T00:55:24;43.00;;;32.00;;
10031;SDS011;5056;44.272;19.892;2023-01-06T00:57:51;39.70;;;30.67;;
10031;SDS011;5056;44.272;19.892;2023-01-06T01:00:18;41.50;;;31.00;;
10031;SDS011;5056;44.272;19.892;2023-01-06T01:02:47;38.33;;;29.60;;
10031;SDS011;5056;44.272;19.892;2023-01-06T01:05:14;41.80;;;30.93;;
10031;SDS011;5056;44.272;19.892;2023-01-06T01:07:41;44.07;;;33.60;;
10031;SDS011;5056;44.272;19.892;2023-01-06T01:10:08;43.47;;;33.43;;
10031;SDS011;5056;44.272;19.892;2023-01-06T01:12:35;41.83;;;30.90;;
10031;SDS011;5056;44.272;19.892;2023-01-06T01:15:02;45.30;;;33.80;;
10031;SDS011;5056;44.272;19.892;2023-01-06T01:17:30;39.20;;;29.67;;
10031;SDS011;5056;44.272;19.892;2023-01-06T01:19:58;41.77;;;30.40;;
10031;SDS011;5056;44.272;19.892;2023-01-06T01:22:26;38.83;;;27.87;;
10031;SDS011;5056;44.272;19.892;2023-01-06T01:24:54;31.77;;;25.63;;
10031;SDS011;5056;44.272;19.892;2023-01-06T01:27:20;28.93;;;23.97;;
10031;SDS011;5056;44.272;19.892;2023-01-06T01:29:47;30.77;;;23.67;;
10031;SDS011;5056;44.272;19.892;2023-01-06T01:32:15;27.03;;;21.27;;
10031;SDS011;5056;44.272;19.892;2023-01-06T01:34:42;32.47;;;23.37;;
10031;SDS011;5056;44.272;19.892;2023-01-06T01:37:10;31.37;;;24.70;;
10031;SDS011;5056;44.272;19.892;2023-01-06T01:39:37;28.93;;;23.23;;
10031;SDS011;5056;44.272;19.892;2023-01-06T01:42:05;27.23;;;21.37;;
10031;SDS011;5056;44.272;19.892;2023-01-06T01:44:51;29.03;;;22.13;;
10031;SDS011;5056;44.272;19.892;2023-01-06T01:47:39;27.77;;;22.03;;
10031;SDS011;5056;44.272;19.892;2023-01-06T01:50:13;28.90;;;22.80;;
10031;SDS011;5056;44.272;19.892;2023-01-06T01:52:49;28.43;;;23.90;;
10031;SDS011;5056;44.272;19.892;2023-01-06T01:55:16;30.97;;;23.03;;
10031;SDS011;5056;44.272;19.892;2023-01-06T01:57:45;31.27;;;23.57;;
10031;SDS011;5056;44.272;19.892;2023-01-06T02:00:14;25.87;;;21.57;;
10031;SDS011;5056;44.272;19.892;2023-01-06T02:02:41;24.73;;;21.60;;
10031;SDS011;5056;44.272;19.892;2023-01-06T02:05:09;28.83;;;21.37;;
10031;SDS011;5056;44.272;19.892;2023-01-06T02:07:39;27.43;;;21.87;;
10031;SDS011;5056;44.272;19.892;2023-01-06T02:10:12;25.67;;;20.83;;
10031;SDS011;5056;44.272;19.892;2023-01-06T02:12:40;29.17;;;21.53;;
10031;SDS011;5056;44.272;19.892;2023-01-06T02:15:14;30.10;;;23.67;;
10031;SDS011;5056;44.272;19.892;2023-01-06T02:17:48;31.67;;;23.93;;
10031;SDS011;5056;44.272;19.892;2023-01-06T02:20:38;31.57;;;24.73;;
10031;SDS011;5056;44.272;19.892;2023-01-06T02:23:33;30.67;;;24.60;;
10031;SDS011;5056;44.272;19.892;2023-01-06T02:26:20;32.57;;;25.40;;
10031;SDS011;5056;44.272;19.892;2023-01-06T02:32:30;33.47;;;24.47;;
10031;SDS011;5056;44.272;19.892;2023-01-06T02:35:05;32.27;;;24.43;;
10031;SDS011;5056;44.272;19.892;2023-01-06T02:37:43;29.83;;;23.40;;
10031;SDS011;5056;44.272;19.892;2023-01-06T02:40:20;24.80;;;21.23;;
10031;SDS011;5056;44.272;19.892;2023-01-06T02:42:58;25.20;;;20.07;;
10031;SDS011;5056;44.272;19.892;2023-01-06T02:45:40;26.57;;;20.13;;
10031;SDS011;5056;44.272;19.892;2023-01-06T02:48:17;25.67;;;21.47;;
10031;SDS011;5056;44.272;19.892;2023-01-06T02:50:50;26.17;;;21.40;;
10031;SDS011;5056;44.272;19.892;2023-01-06T02:53:19;27.23;;;22.60;;
10031;SDS011;5056;44.272;19.892;2023-01-06T02:55:47;29.80;;;24.43;;
10031;SDS011;5056;44.272;19.892;2023-01-06T02:58:17;30.00;;;22.57;;
10031;SDS011;5056;44.272;19.892;2023-01-06T03:00:55;25.80;;;22.43;;
10031;SDS011;5056;44.272;19.892;2023-01-06T03:03:28;31.13;;;23.90;;
10031;SDS011;5056;44.272;19.892;2023-01-06T03:05:57;29.90;;;23.50;;
10031;SDS011;5056;44.272;19.892;2023-01-06T03:08:27;35.33;;;25.97;;
10031;SDS011;5056;44.272;19.892;2023-01-06T03:11:08;32.57;;;25.70;;
10031;SDS011;5056;44.272;19.892;2023-01-06T03:13:36;32.13;;;25.20;;
10031;SDS011;5056;44.272;19.892;2023-01-06T03:16:05;38.53;;;27.80;;
10031;SDS011;5056;44.272;19.892;2023-01-06T03:18:34;29.77;;;24.20;;
10031;SDS011;5056;44.272;19.892;2023-01-06T03:21:03;30.43;;;24.03;;
10031;SDS011;5056;44.272;19.892;2023-01-06T03:23:32;30.73;;;23.27;;
10031;SDS011;5056;44.272;19.892;2023-01-06T03:26:00;26.07;;;21.40;;
10031;SDS011;5056;44.272;19.892;2023-01-06T03:28:26;24.83;;;19.80;;
10031;SDS011;5056;44.272;19.892;2023-01-06T03:30:54;23.23;;;18.63;;
10031;SDS011;5056;44.272;19.892;2023-01-06T03:33:25;23.13;;;17.60;;
10031;SDS011;5056;44.272;19.892;2023-01-06T03:36:02;20.93;;;17.93;;
10031;SDS011;5056;44.272;19.892;2023-01-06T03:38:41;20.13;;;17.37;;
10031;SDS011;5056;44.272;19.892;2023-01-06T03:41:27;21.97;;;17.23;;
10031;SDS011;5056;44.272;19.892;2023-01-06T03:44:12;22.40;;;17.10;;
10031;SDS011;5056;44.272;19.892;2023-01-06T03:46:43;21.10;;;16.87;;
10031;SDS011;5056;44.272;19.892;2023-01-06T03:49:16;21.17;;;17.40;;
10031;SDS011;5056;44.272;19.892;2023-01-06T03:51:47;23.80;;;18.60;;
10031;SDS011;5056;44.272;19.892;2023-01-06T03:54:21;21.93;;;17.80;;
10031;SDS011;5056;44.272;19.892;2023-01-06T03:56:56;22.93;;;17.87;;
10031;SDS011;5056;44.272;19.892;2023-01-06T03:59:27;21.83;;;18.30;;
10031;SDS011;5056;44.272;19.892;2023-01-06T04:01:56;22.30;;;17.73;;
10031;SDS011;5056;44.272;19.892;2023-01-06T04:04:23;23.73;;;17.73;;
10031;SDS011;5056;44.272;19.892;2023-01-06T04:06:54;21.80;;;16.53;;
10031;SDS011;5056;44.272;19.892;2023-01-06T04:09:20;19.63;;;15.10;;
10031;SDS011;5056;44.272;19.892;2023-01-06T04:11:47;16.93;;;14.50;;
10031;SDS011;5056;44.272;19.892;2023-01-06T04:17:17;16.40;;;14.00;;
10031;SDS011;5056;44.272;19.892;2023-01-06T04:19:44;18.37;;;15.70;;
10031;SDS011;5056;44.272;19.892;2023-01-06T04:22:12;19.03;;;15.83;;
10031;SDS011;5056;44.272;19.892;2023-01-06T04:24:39;21.13;;;16.93;;
10031;SDS011;5056;44.272;19.892;2023-01-06T04:27:07;21.40;;;17.20;;
10031;SDS011;5056;44.272;19.892;2023-01-06T04:29:34;24.50;;;18.40;;
10031;SDS011;5056;44.272;19.892;2023-01-06T04:32:01;27.37;;;22.20;;
10031;SDS011;5056;44.272;19.892;2023-01-06T04:34:28;45.43;;;26.50;;
10031;SDS011;5056;44.272;19.892;2023-01-06T04:36:55;47.50;;;33.50;;
10031;SDS011;5056;44.272;19.892;2023-01-06T04:39:23;54.20;;;35.27;;
10031;SDS011;5056;44.272;19.892;2023-01-06T04:41:49;40.67;;;29.33;;
10031;SDS011;5056;44.272;19.892;2023-01-06T04:44:16;36.70;;;26.90;;
10031;SDS011;5056;44.272;19.892;2023-01-06T04:46:43;30.50;;;25.50;;
10031;SDS011;5056;44.272;19.892;2023-01-06T04:49:10;33.17;;;26.20;;
10031;SDS011;5056;44.272;19.892;2023-01-06T04:51:37;34.20;;;24.80;;
10031;SDS011;5056;44.272;19.892;2023-01-06T04:54:03;31.07;;;25.60;;
10031;SDS011;5056;44.272;19.892;2023-01-06T04:56:32;35.93;;;26.97;;
10031;SDS011;5056;44.272;19.892;2023-01-06T04:59:01;35.97;;;27.07;;
10031;SDS011;5056;44.272;19.892;2023-01-06T05:01:31;37.23;;;28.43;;
10031;SDS011;5056;44.272;19.892;2023-01-06T05:03:58;34.97;;;26.60;;
10031;SDS011;5056;44.272;19.892;2023-01-06T05:06:26;32.97;;;25.10;;
10031;SDS011;5056;44.272;19.892;2023-01-06T05:08:53;27.27;;;22.77;;
10031;SDS011;5056;44.272;19.892;2023-01-06T05:11:21;29.77;;;22.60;;
10031;SDS011;5056;44.272;19.892;2023-01-06T05:14:00;27.00;;;21.70;;
10031;SDS011;5056;44.272;19.892;2023-01-06T05:16:27;33.83;;;23.73;;
10031;SDS011;5056;44.272;19.892;2023-01-06T05:18:55;28.83;;;22.97;;
10031;SDS011;5056;44.272;19.892;2023-01-06T05:21:22;30.73;;;24.53;;
10031;SDS011;5056;44.272;19.892;2023-01-06T05:23:50;29.67;;;23.00;;
10031;SDS011;5056;44.272;19.892;2023-01-06T05:26:18;30.70;;;24.30;;
10031;SDS011;5056;44.272;19.892;2023-01-06T05:28:46;32.77;;;24.10;;
10031;SDS011;5056;44.272;19.892;2023-01-06T05:31:14;28.30;;;22.20;;
10031;SDS011;5056;44.272;19.892;2023-01-06T05:33:41;27.53;;;22.10;;
10031;SDS011;5056;44.272;19.892;2023-01-06T05:36:08;27.90;;;24.13;;
10031;SDS011;5056;44.272;19.892;2023-01-06T05:38:36;29.03;;;22.07;;
10031;SDS011;5056;44.272;19.892;2023-01-06T05:41:03;25.37;;;21.70;;
10031;SDS011;5056;44.272;19.892;2023-01-06T05:43:31;27.70;;;23.03;;
10031;SDS011;5056;44.272;19.892;2023-01-06T05:46:02;32.37;;;26.00;;
10031;SDS011;5056;44.272;19.892;2023-01-06T05:48:32;45.40;;;33.93;;
10031;SDS011;5056;44.272;19.892;2023-01-06T05:51:01;43.20;;;33.47;;
10031;SDS011;5056;44.272;19.892;2023-01-06T05:53:29;54.70;;;40.80;;
10031;SDS011;5056;44.272;19.892;2023-01-06T05:55:58;50.53;;;37.33;;
10031;SDS011;5056;44.272;19.892;2023-01-06T05:58:25;41.30;;;33.23;;
10031;SDS011;5056;44.272;19.892;2023-01-06T06:00:52;47.83;;;36.97;;
10031;SDS011;5056;44.272;19.892;2023-01-06T06:03:20;49.73;;;36.30;;
10031;SDS011;5056;44.272;19.892;2023-01-06T06:05:48;50.60;;;37.97;;
10031;SDS011;5056;44.272;19.892;2023-01-06T06:08:14;55.10;;;40.20;;
10031;SDS011;5056;44.272;19.892;2023-01-06T06:10:41;61.57;;;44.77;;
10031;SDS011;5056;44.272;19.892;2023-01-06T06:13:09;56.33;;;43.17;;
10031;SDS011;5056;44.272;19.892;2023-01-06T06:15:36;57.23;;;41.23;;
10031;SDS011;5056;44.272;19.892;2023-01-06T06:18:03;52.20;;;38.63;;
10031;SDS011;5056;44.272;19.892;2023-01-06T06:20:29;45.37;;;35.97;;
10031;SDS011;5056;44.272;19.892;2023-01-06T06:22:59;43.03;;;32.93;;
10031;SDS011;5056;44.272;19.892;2023-01-06T06:25:25;41.60;;;31.97;;
10031;SDS011;5056;44.272;19.892;2023-01-06T06:27:55;37.53;;;29.87;;
10031;SDS011;5056;44.272;19.892;2023-01-06T06:30:24;35.30;;;26.13;;
10031;SDS011;5056;44.272;19.892;2023-01-06T06:32:50;37.77;;;29.07;;
10031;SDS011;5056;44.272;19.892;2023-01-06T06:35:17;33.83;;;27.10;;
10031;SDS011;5056;44.272;19.892;2023-01-06T06:37:44;34.13;;;27.30;;
10031;SDS011;5056;44.272;19.892;2023-01-06T06:40:12;35.67;;;26.53;;
10031;SDS011;5056;44.272;19.892;2023-01-06T06:42:39;36.93;;;28.47;;
10031;SDS011;5056;44.272;19.892;2023-01-06T06:45:06;40.30;;;27.90;;
10031;SDS011;5056;44.272;19.892;2023-01-06T06:47:34;36.70;;;26.47;;
10031;SDS011;5056;44.272;19.892;2023-01-06T06:50:00;34.70;;;26.30;;
10031;SDS011;5056;44.272;19.892;2023-01-06T06:52:27;33.73;;;25.90;;
10031;SDS011;5056;44.272;19.892;2023-01-06T06:54:54;34.40;;;24.90;;
10031;SDS011;5056;44.272;19.892;2023-01-06T06:57:23;28.97;;;23.20;;
10031;SDS011;5056;44.272;19.892;2023-01-06T06:59:50;29.80;;;23.27;;
10031;SDS011;5056;44.272;19.892;2023-01-06T07:02:17;31.33;;;24.57;;
10031;SDS011;5056;44.272;19.892;2023-01-06T07:04:44;30.10;;;22.90;;
10031;SDS011;5056;44.272;19.892;2023-01-06T07:07:10;31.57;;;23.40;;
10031;SDS011;5056;44.272;19.892;2023-01-06T07:09:37;30.80;;;24.23;;
10031;SDS011;5056;44.272;19.892;2023-01-06T07:12:04;32.50;;;25.40;;
10031;SDS011;5056;44.272;19.892;2023-01-06T07:14:34;37.37;;;27.47;;
10031;SDS011;5056;44.272;19.892;2023-01-06T07:17:00;43.60;;;33.27;;
10031;SDS011;5056;44.272;19.892;2023-01-06T07:19:28;45.27;;;35.50;;
10031;SDS011;5056;44.272;19.892;2023-01-06T07:21:54;40.80;;;32.77;;
10031;SDS011;5056;44.272;19.892;2023-01-06T07:24:21;40.33;;;30.90;;
10031;SDS011;5056;44.272;19.892;2023-01-06T07:26:48;41.60;;;32.57;;
10031;SDS011;5056;44.272;19.892;2023-01-06T07:29:21;45.53;;;35.93;;
10031;SDS011;5056;44.272;19.892;2023-01-06T07:31:49;48.07;;;37.27;;
10031;SDS011;5056;44.272;19.892;2023-01-06T07:34:17;51.27;;;37.73;;
10031;SDS011;5056;44.272;19.892;2023-01-06T07:36:44;55.40;;;44.07;;
10031;SDS011;5056;44.272;19.892;2023-01-06T07:39:12;70.10;;;52.70;;
10031;SDS011;5056;44.272;19.892;2023-01-06T07:41:39;79.57;;;57.93;;
10031;SDS011;5056;44.272;19.892;2023-01-06T07:44:07;89.10;;;65.37;;
10031;SDS011;5056;44.272;19.892;2023-01-06T07:46:35;96.60;;;67.40;;
10031;SDS011;5056;44.272;19.892;2023-01-06T07:49:04;78.47;;;58.40;;
10031;SDS011;5056;44.272;19.892;2023-01-06T07:51:30;77.23;;;57.67;;
10031;SDS011;5056;44.272;19.892;2023-01-06T07:53:57;68.97;;;55.30;;
10031;SDS011;5056;44.272;19.892;2023-01-06T07:56:25;68.40;;;49.83;;
10031;SDS011;5056;44.272;19.892;2023-01-06T07:58:52;65.57;;;52.27;;
10031;SDS011;5056;44.272;19.892;2023-01-06T08:01:19;69.20;;;52.40;;
10031;SDS011;5056;44.272;19.892;2023-01-06T08:03:46;66.43;;;48.87;;
10031;SDS011;5056;44.272;19.892;2023-01-06T08:06:16;59.57;;;47.43;;
10031;SDS011;5056;44.272;19.892;2023-01-06T08:08:42;61.87;;;46.80;;
10031;SDS011;5056;44.272;19.892;2023-01-06T08:11:10;57.37;;;44.87;;
10031;SDS011;5056;44.272;19.892;2023-01-06T08:13:41;62.47;;;47.67;;
10031;SDS011;5056;44.272;19.892;2023-01-06T08:16:08;60.27;;;46.80;;
10031;SDS011;5056;44.272;19.892;2023-01-06T08:18:39;64.07;;;48.03;;
10031;SDS011;5056;44.272;19.892;2023-01-06T08:21:09;65.47;;;50.13;;
10031;SDS011;5056;44.272;19.892;2023-01-06T08:23:40;63.03;;;48.77;;
10031;SDS011;5056;44.272;19.892;2023-01-06T08:26:08;90.87;;;64.47;;
10031;SDS011;5056;44.272;19.892;2023-01-06T08:28:37;87.33;;;62.87;;
10031;SDS011;5056;44.272;19.892;2023-01-06T08:31:07;86.73;;;65.07;;
10031;SDS011;5056;44.272;19.892;2023-01-06T08:33:34;91.63;;;67.73;;
10031;SDS011;5056;44.272;19.892;2023-01-06T08:36:02;105.30;;;74.97;;
10031;SDS011;5056;44.272;19.892;2023-01-06T08:38:32;106.87;;;80.23;;
10031;SDS011;5056;44.272;19.892;2023-01-06T08:41:02;109.17;;;82.80;;
10031;SDS011;5056;44.272;19.892;2023-01-06T08:43:30;115.23;;;85.27;;
10031;SDS011;5056;44.272;19.892;2023-01-06T08:45:57;127.37;;;96.20;;
10031;SDS011;5056;44.272;19.892;2023-01-06T08:48:25;127.73;;;99.17;;
10031;SDS011;5056;44.272;19.892;2023-01-06T08:53:47;134.13;;;104.57;;
10031;SDS011;5056;44.272;19.892;2023-01-06T08:56:17;135.60;;;102.03;;
10031;SDS011;5056;44.272;19.892;2023-01-06T09:01:17;122.53;;;94.97;;
10031;SDS011;5056;44.272;19.892;2023-01-06T09:03:44;116.67;;;87.30;;
10031;SDS011;5056;44.272;19.892;2023-01-06T09:06:22;103.47;;;78.27;;
10031;SDS011;5056;44.272;19.892;2023-01-06T09:08:51;108.33;;;78.23;;
10031;SDS011;5056;44.272;19.892;2023-01-06T09:11:20;101.20;;;79.53;;
10031;SDS011;5056;44.272;19.892;2023-01-06T09:13:47;105.80;;;77.73;;
10031;SDS011;5056;44.272;19.892;2023-01-06T09:16:15;90.70;;;68.73;;
10031;SDS011;5056;44.272;19.892;2023-01-06T09:18:42;93.73;;;65.70;;
10031;SDS011;5056;44.272;19.892;2023-01-06T09:21:14;81.47;;;59.63;;
10031;SDS011;5056;44.272;19.892;2023-01-06T09:23:42;89.20;;;58.67;;
10031;SDS011;5056;44.272;19.892;2023-01-06T09:26:09;76.80;;;53.93;;
10031;SDS011;5056;44.272;19.892;2023-01-06T09:28:37;73.73;;;50.17;;
10031;SDS011;5056;44.272;19.892;2023-01-06T09:31:05;63.97;;;45.83;;
10031;SDS011;5056;44.272;19.892;2023-01-06T09:33:32;58.77;;;45.10;;
10031;SDS011;5056;44.272;19.892;2023-01-06T09:35:59;58.17;;;43.40;;
10031;SDS011;5056;44.272;19.892;2023-01-06T09:38:27;61.10;;;43.63;;
10031;SDS011;5056;44.272;19.892;2023-01-06T09:40:58;55.20;;;42.17;;
10031;SDS011;5056;44.272;19.892;2023-01-06T09:43:33;52.27;;;41.83;;
10031;SDS011;5056;44.272;19.892;2023-01-06T09:46:06;52.77;;;40.20;;
10031;SDS011;5056;44.272;19.892;2023-01-06T09:48:34;45.97;;;36.37;;
10031;SDS011;5056;44.272;19.892;2023-01-06T09:51:06;40.00;;;32.33;;
10031;SDS011;5056;44.272;19.892;2023-01-06T09:53:35;36.93;;;29.03;;
10031;SDS011;5056;44.272;19.892;2023-01-06T09:56:06;28.57;;;23.17;;
10031;SDS011;5056;44.272;19.892;2023-01-06T09:58:41;21.10;;;17.73;;
10031;SDS011;5056;44.272;19.892;2023-01-06T10:01:12;21.90;;;16.80;;
10031;SDS011;5056;44.272;19.892;2023-01-06T10:03:41;13.33;;;11.30;;
10031;SDS011;5056;44.272;19.892;2023-01-06T10:06:24;13.53;;;10.63;;
10031;SDS011;5056;44.272;19.892;2023-01-06T10:08:57;15.17;;;12.13;;
10031;SDS011;5056;44.272;19.892;2023-01-06T10:11:32;15.53;;;11.73;;
10031;SDS011;5056;44.272;19.892;2023-01-06T10:14:11;14.00;;;10.10;;
10031;SDS011;5056;44.272;19.892;2023-01-06T10:16:55;8.33;;;7.50;;
10031;SDS011;5056;44.272;19.892;2023-01-06T10:19:35;11.07;;;7.80;;
10031;SDS011;5056;44.272;19.892;2023-01-06T10:22:12;10.73;;;7.60;;
10031;SDS011;5056;44.272;19.892;2023-01-06T10:24:47;13.27;;;8.73;;
10031;SDS011;5056;44.272;19.892;2023-01-06T10:27:19;11.47;;;8.40;;
10031;SDS011;5056;44.272;19.892;2023-01-06T10:29:51;10.83;;;8.43;;
10031;SDS011;5056;44.272;19.892;2023-01-06T10:32:19;12.53;;;9.77;;
10031;SDS011;5056;44.272;19.892;2023-01-06T10:34:50;10.47;;;8.53;;
10031;SDS011;5056;44.272;19.892;2023-01-06T10:37:18;9.43;;;7.90;;
10031;SDS011;5056;44.272;19.892;2023-01-06T10:39:51;10.53;;;9.23;;
10031;SDS011;5056;44.272;19.892;2023-01-06T10:42:23;12.83;;;10.13;;
10031;SDS011;5056;44.272;19.892;2023-01-06T10:45:14;10.43;;;8.77;;
10031;SDS011;5056;44.272;19.892;2023-01-06T10:47:41;14.13;;;9.77;;
10031;SDS011;5056;44.272;19.892;2023-01-06T10:50:11;15.27;;;9.77;;
10031;SDS011;5056;44.272;19.892;2023-01-06T10:52:39;14.13;;;11.13;;
10031;SDS011;5056;44.272;19.892;2023-01-06T10:55:08;16.53;;;11.47;;
10031;SDS011;5056;44.272;19.892;2023-01-06T10:57:41;15.23;;;10.63;;
10031;SDS011;5056;44.272;19.892;2023-01-06T11:00:09;15.83;;;10.37;;
10031;SDS011;5056;44.272;19.892;2023-01-06T11:02:47;15.60;;;13.03;;
10031;SDS011;5056;44.272;19.892;2023-01-06T11:05:16;17.60;;;12.17;;
10031;SDS011;5056;44.272;19.892;2023-01-06T11:07:44;14.13;;;9.90;;
10031;SDS011;5056;44.272;19.892;2023-01-06T11:10:23;13.30;;;10.03;;
10031;SDS011;5056;44.272;19.892;2023-01-06T11:12:56;10.40;;;8.67;;
10031;SDS011;5056;44.272;19.892;2023-01-06T11:15:30;16.47;;;9.43;;
10031;SDS011;5056;44.272;19.892;2023-01-06T11:18:02;10.37;;;8.10;;
10031;SDS011;5056;44.272;19.892;2023-01-06T11:20:30;9.80;;;7.30;;
10031;SDS011;5056;44.272;19.892;2023-01-06T11:23:11;8.43;;;7.03;;
10031;SDS011;5056;44.272;19.892;2023-01-06T11:25:39;8.70;;;5.93;;
10031;SDS011;5056;44.272;19.892;2023-01-06T11:28:12;9.77;;;6.17;;
10031;SDS011;5056;44.272;19.892;2023-01-06T11:30:46;6.70;;;5.90;;
10031;SDS011;5056;44.272;19.892;2023-01-06T11:33:18;11.13;;;8.87;;
10031;SDS011;5056;44.272;19.892;2023-01-06T11:35:49;15.90;;;11.20;;
10031;SDS011;5056;44.272;19.892;2023-01-06T11:41:31;9.40;;;7.00;;
10031;SDS011;5056;44.272;19.892;2023-01-06T11:44:04;8.37;;;6.90;;
10031;SDS011;5056;44.272;19.892;2023-01-06T11:46:34;9.53;;;7.60;;
10031;SDS011;5056;44.272;19.892;2023-01-06T11:49:05;9.40;;;6.30;;
10031;SDS011;5056;44.272;19.892;2023-01-06T11:51:44;10.67;;;6.97;;
10031;SDS011;5056;44.272;19.892;2023-01-06T11:54:22;5.97;;;5.33;;
10031;SDS011;5056;44.272;19.892;2023-01-06T11:56:57;6.97;;;5.30;;
10031;SDS011;5056;44.272;19.892;2023-01-06T11:59:27;5.40;;;4.80;;
10031;SDS011;5056;44.272;19.892;2023-01-06T12:01:59;6.87;;;5.80;;
10031;SDS011;5056;44.272;19.892;2023-01-06T12:04:28;9.33;;;7.20;;
10031;SDS011;5056;44.272;19.892;2023-01-06T12:06:58;17.67;;;12.13;;
10031;SDS011;5056;44.272;19.892;2023-01-06T12:09:30;10.70;;;8.47;;
10031;SDS011;5056;44.272;19.892;2023-01-06T12:12:02;9.60;;;5.57;;
10031;SDS011;5056;44.272;19.892;2023-01-06T12:14:32;10.23;;;8.03;;
10031;SDS011;5056;44.272;19.892;2023-01-06T12:17:04;15.70;;;11.20;;
10031;SDS011;5056;44.272;19.892;2023-01-06T12:19:34;34.07;;;27.20;;
10031;SDS011;5056;44.272;19.892;2023-01-06T12:22:03;21.57;;;18.63;;
10031;SDS011;5056;44.272;19.892;2023-01-06T12:24:31;21.30;;;17.40;;
10031;SDS011;5056;44.272;19.892;2023-01-06T12:26:59;15.20;;;12.43;;
10031;SDS011;5056;44.272;19.892;2023-01-06T12:29:26;13.17;;;11.73;;
10031;SDS011;5056;44.272;19.892;2023-01-06T12:31:56;12.67;;;9.03;;
10031;SDS011;5056;44.272;19.892;2023-01-06T12:34:29;8.17;;;6.40;;
10031;SDS011;5056;44.272;19.892;2023-01-06T12:37:00;13.20;;;9.07;;
10031;SDS011;5056;44.272;19.892;2023-01-06T12:39:37;13.70;;;9.40;;
10031;SDS011;5056;44.272;19.892;2023-01-06T12:42:09;12.03;;;9.00;;
10031;SDS011;5056;44.272;19.892;2023-01-06T12:44:42;13.27;;;9.57;;
10031;SDS011;5056;44.272;19.892;2023-01-06T12:47:12;11.83;;;8.40;;
10031;SDS011;5056;44.272;19.892;2023-01-06T12:49:44;11.37;;;6.67;;
10031;SDS011;5056;44.272;19.892;2023-01-06T12:52:14;7.73;;;5.80;;
10031;SDS011;5056;44.272;19.892;2023-01-06T12:54:44;8.30;;;5.90;;
10031;SDS011;5056;44.272;19.892;2023-01-06T12:57:19;6.40;;;5.50;;
10031;SDS011;5056;44.272;19.892;2023-01-06T12:59:59;6.67;;;5.43;;
10031;SDS011;5056;44.272;19.892;2023-01-06T13:02:40;6.80;;;4.30;;
10031;SDS011;5056;44.272;19.892;2023-01-06T13:11:30;8.67;;;6.33;;
10031;SDS011;5056;44.272;19.892;2023-01-06T13:14:01;6.37;;;5.27;;
10031;SDS011;5056;44.272;19.892;2023-01-06T13:16:35;141.30;;;99.63;;
10031;SDS011;5056;44.272;19.892;2023-01-06T13:19:08;42.33;;;37.83;;
10031;SDS011;5056;44.272;19.892;2023-01-06T13:21:42;23.43;;;20.93;;
10031;SDS011;5056;44.272;19.892;2023-01-06T13:24:32;17.57;;;14.97;;
10031;SDS011;5056;44.272;19.892;2023-01-06T13:27:10;12.07;;;9.90;;
10031;SDS011;5056;44.272;19.892;2023-01-06T13:29:45;14.73;;;9.97;;
10031;SDS011;5056;44.272;19.892;2023-01-06T13:32:38;12.37;;;9.30;;
10031;SDS011;5056;44.272;19.892;2023-01-06T13:35:19;8.00;;;6.87;;
10031;SDS011;5056;44.272;19.892;2023-01-06T13:37:59;11.17;;;8.47;;
10031;SDS011;5056;44.272;19.892;2023-01-06T13:40:31;9.83;;;8.43;;
10031;SDS011;5056;44.272;19.892;2023-01-06T13:43:04;9.93;;;8.93;;
10031;SDS011;5056;44.272;19.892;2023-01-06T13:45:39;10.20;;;7.20;;
10031;SDS011;5056;44.272;19.892;2023-01-06T13:48:14;8.67;;;5.93;;
10031;SDS011;5056;44.272;19.892;2023-01-06T13:50:43;7.50;;;5.60;;
10031;SDS011;5056;44.272;19.892;2023-01-06T13:53:12;161.63;;;66.87;;
10031;SDS011;5056;44.272;19.892;2023-01-06T13:55:41;89.57;;;46.80;;
10031;SDS011;5056;44.272;19.892;2023-01-06T14:01:06;39.47;;;23.00;;
10031;SDS011;5056;44.272;19.892;2023-01-06T14:03:35;46.37;;;29.80;;
10031;SDS011;5056;44.272;19.892;2023-01-06T14:06:02;60.43;;;36.63;;
10031;SDS011;5056;44.272;19.892;2023-01-06T14:08:31;46.17;;;30.80;;
10031;SDS011;5056;44.272;19.892;2023-01-06T14:11:04;47.50;;;33.40;;
10031;SDS011;5056;44.272;19.892;2023-01-06T14:13:47;24.70;;;17.27;;
10031;SDS011;5056;44.272;19.892;2023-01-06T14:16:15;24.30;;;17.63;;
10031;SDS011;5056;44.272;19.892;2023-01-06T14:18:42;22.33;;;15.73;;
10031;SDS011;5056;44.272;19.892;2023-01-06T14:21:15;26.67;;;19.47;;
10031;SDS011;5056;44.272;19.892;2023-01-06T14:23:48;38.00;;;26.20;;
10031;SDS011;5056;44.272;19.892;2023-01-06T14:26:16;67.57;;;45.30;;
10031;SDS011;5056;44.272;19.892;2023-01-06T14:28:43;151.03;;;92.77;;
10031;SDS011;5056;44.272;19.892;2023-01-06T14:34:12;42.10;;;30.03;;
10031;SDS011;5056;44.272;19.892;2023-01-06T14:36:42;38.53;;;27.23;;
10031;SDS011;5056;44.272;19.892;2023-01-06T14:39:16;37.20;;;21.83;;
10031;SDS011;5056;44.272;19.892;2023-01-06T14:41:46;43.23;;;25.20;;
10031;SDS011;5056;44.272;19.892;2023-01-06T14:44:17;83.23;;;42.53;;
10031;SDS011;5056;44.272;19.892;2023-01-06T14:46:51;91.00;;;46.77;;
10031;SDS011;5056;44.272;19.892;2023-01-06T14:49:20;61.67;;;32.47;;
10031;SDS011;5056;44.272;19.892;2023-01-06T14:51:49;46.80;;;27.73;;
10031;SDS011;5056;44.272;19.892;2023-01-06T14:54:18;40.70;;;25.27;;
10031;SDS011;5056;44.272;19.892;2023-01-06T14:56:53;48.77;;;28.87;;
10031;SDS011;5056;44.272;19.892;2023-01-06T14:59:30;59.47;;;34.83;;
10031;SDS011;5056;44.272;19.892;2023-01-06T15:01:59;51.33;;;32.47;;
10031;SDS011;5056;44.272;19.892;2023-01-06T15:04:30;37.60;;;24.50;;
10031;SDS011;5056;44.272;19.892;2023-01-06T15:07:00;28.17;;;19.43;;
10031;SDS011;5056;44.272;19.892;2023-01-06T15:09:29;25.57;;;19.33;;
10031;SDS011;5056;44.272;19.892;2023-01-06T15:11:57;25.07;;;18.70;;